Terminal Aerodrome Forecast
Issued by NWS

Home | Current Version | Previous Version | Text Only | Print | Product List | Glossary Off
Versions: 1 2 3 4 5 6 7 8 9 10 11 12 13 14 15

000
FTUS45 KGGW 181407 AAA
TAFGDV
TAF AMD
KGDV 181407Z 1814/1912 31015KT P6SM SCT020 BKN060
     FM182200 02010KT P6SM BKN060
     FM190900 05006KT P6SM SCT030=

USA.gov is the U.S. government's official web portal to all federal, state and local government web resources and services.